Time;durP1;ratioP1;P1;durP2;ratioP2;P2;SDS_P1;SDS_P2;PMS_P1;PMS_P2;Temp;Humidity;BMP_temperature;BMP_pressure;BME280_temperature;BME280_humidity;BME280_pressure;Samples;Min_cycle;Max_cycle;Signal;HPM_P1;HPM_P2
2022/04/18 00:01:05;;;;;;;0.98;0.60;;;;;;;7.27;97.81;99600.69;5039766;28;20100;-73
2022/04/18 00:03:31;;;;;;;13.73;5.18;;;;;;;7.52;96.71;99593.94;5038529;28;20059;-73
2022/04/18 00:05:56;;;;;;;3.20;0.85;;;;;;;7.55;95.72;99591.03;5071549;28;20072;-73
2022/04/18 00:08:21;;;;;;;1.75;0.95;;;;;;;7.34;97.31;99580.72;5039987;28;20326;-73
2022/04/18 00:10:47;;;;;;;3.13;0.82;;;;;;;7.31;96.65;99580.19;5038831;28;20046;-73
2022/04/18 00:13:12;;;;;;;1.42;1.25;;;;;;;7.23;98.09;99590.56;5039829;28;20108;-73
2022/04/18 00:15:38;;;;;;;1.95;1.20;;;;;;;7.44;97.08;99588.59;5038537;28;20097;-73
2022/04/18 00:18:03;;;;;;;1.48;0.70;;;;;;;7.33;97.09;99583.50;5039286;28;20041;-73
2022/04/18 00:20:29;;;;;;;1.58;0.90;;;;;;;7.52;96.36;99579.94;5039804;28;20303;-73
2022/04/18 00:22:54;;;;;;;34.50;11.73;;;;;;;7.44;95.92;99541.16;5040590;28;20402;-73
2022/04/18 00:25:20;;;;;;;9.55;3.38;;;;;;;7.72;95.85;99576.22;5040429;28;20052;-73
2022/04/18 00:27:45;;;;;;;9.40;2.72;;;;;;;7.81;95.53;99575.34;5039626;28;20243;-73
2022/04/18 00:30:10;;;;;;;8.73;3.45;;;;;;;7.99;93.48;99585.91;5039683;28;20088;-73
2022/04/18 00:32:36;;;;;;;4.47;1.92;;;;;;;7.96;94.58;99579.13;5039115;28;20033;-73
2022/04/18 00:35:05;;;;;;;12.65;3.47;;;;;;;7.99;93.92;99578.81;5038716;28;20092;-73
2022/04/18 00:37:30;;;;;;;3.75;1.50;;;;;;;8.10;93.85;99576.94;5036965;28;20044;-73
2022/04/18 00:39:56;;;;;;;3.58;1.40;;;;;;;8.04;93.46;99572.28;5039112;28;20269;-73
2022/04/18 00:42:21;;;;;;;2.55;1.60;;;;;;;7.98;94.03;99571.06;5037770;28;20071;-73
2022/04/18 00:44:46;;;;;;;3.03;1.60;;;;;;;7.99;94.63;99570.09;5038319;28;20319;-73
2022/04/18 00:47:12;;;;;;;10.23;4.30;;;;;;;8.27;91.71;99569.03;5039006;28;21187;-73
2022/04/18 00:49:38;;;;;;;5.05;2.38;;;;;;;8.25;92.17;99568.34;5039433;28;20037;-73
2022/04/18 00:52:05;;;;;;;4.38;1.77;;;;;;;8.25;92.07;99570.16;5038307;28;20037;-73
2022/04/18 00:54:33;;;;;;;2.40;1.50;;;;;;;8.12;93.13;99565.28;5039047;28;20033;-73
2022/04/18 00:56:58;;;;;;;6.35;1.98;;;;;;;8.21;92.55;99559.09;5038857;28;20037;-73
2022/04/18 00:59:24;;;;;;;3.97;1.50;;;;;;;8.14;92.41;99558.03;5037142;28;20200;-73
2022/04/18 01:01:49;;;;;;;2.42;1.10;;;;;;;8.06;93.50;99565.88;5038050;28;20102;-73
2022/04/18 01:04:15;;;;;;;1.33;0.95;;;;;;;8.08;93.54;99566.53;5038978;28;20037;-73
2022/04/18 01:06:40;;;;;;;5.30;2.00;;;;;;;8.15;93.92;99551.78;5038104;28;20037;-73
2022/04/18 01:09:07;;;;;;;2.97;1.60;;;;;;;8.19;92.49;99553.13;5038649;28;20033;-73
2022/04/18 01:11:32;;;;;;;1.80;1.10;;;;;;;8.19;93.92;99554.94;5039601;28;20017;-73
2022/04/18 01:14:01;;;;;;;1.60;0.98;;;;;;;8.13;93.93;99543.19;5038691;28;20333;-73
2022/04/18 01:16:26;;;;;;;3.65;1.27;;;;;;;8.26;93.75;99548.91;5037697;28;20044;-73
2022/04/18 01:18:52;;;;;;;2.38;1.02;;;;;;;8.12;93.87;99544.16;5038603;28;20030;-73
2022/04/18 01:21:20;;;;;;;1.23;1.10;;;;;;;8.22;93.67;99541.44;5038511;28;20038;-73
2022/04/18 01:23:46;;;;;;;1.83;1.40;;;;;;;8.20;92.67;99536.31;5038706;28;20037;-73
2022/04/18 01:28:59;;;;;;;5.07;1.83;;;;;;;8.32;92.17;99539.56;5037774;28;20194;-73
2022/04/18 01:31:29;;;;;;;2.30;1.40;;;;;;;8.18;92.08;99537.47;5038624;28;20443;-73
2022/04/18 01:33:55;;;;;;;13.15;5.55;;;;;;;8.32;91.06;99521.09;5036815;28;20092;-73
2022/04/18 01:36:21;;;;;;;14.88;6.07;;;;;;;8.39;90.73;99521.38;5037800;28;20042;-73
2022/04/18 01:38:46;;;;;;;10.20;3.78;;;;;;;8.23;91.91;99525.47;5036781;28;20029;-73
2022/04/18 01:41:12;;;;;;;6.78;3.67;;;;;;;8.28;91.90;99523.22;5037669;28;20036;-73
2022/04/18 01:43:37;;;;;;;3.08;2.40;;;;;;;8.38;92.39;99514.44;5037779;28;20041;-73
2022/04/18 01:46:03;;;;;;;9.15;3.97;;;;;;;8.30;92.35;99501.94;5042037;28;20045;-73
2022/04/18 01:48:28;;;;;;;4.18;2.20;;;;;;;8.12;93.54;99517.78;5041233;28;20009;-73
2022/04/18 01:50:54;;;;;;;2.83;1.85;;;;;;;7.92;94.15;99506.59;5041671;28;20108;-73
2022/04/18 01:53:19;;;;;;;8.00;3.08;;;;;;;7.98;94.91;99521.78;5041247;28;20033;-73
2022/04/18 01:55:45;;;;;;;4.10;2.67;;;;;;;7.96;94.32;99504.47;5041187;28;20038;-73
2022/04/18 01:58:10;;;;;;;23.10;7.35;;;;;;;7.67;93.25;99462.53;5040922;28;20032;-73
2022/04/18 02:00:36;;;;;;;3.55;2.63;;;;;;;7.89;94.19;99516.59;5042416;28;20234;-73
2022/04/18 02:03:01;;;;;;;1.77;1.60;;;;;;;7.92;94.14;99517.13;5041672;28;20235;-73
2022/04/18 02:05:27;;;;;;;1.83;1.30;;;;;;;7.95;94.66;99513.34;5041498;28;20041;-73
2022/04/18 02:07:52;;;;;;;1.13;1.00;;;;;;;7.76;94.92;99505.59;5042331;28;20243;-73
2022/04/18 02:10:18;;;;;;;1.50;1.00;;;;;;;7.71;95.49;99503.41;5042021;28;20028;-73
2022/04/18 02:12:43;;;;;;;3.53;2.78;;;;;;;7.73;94.76;99493.53;5040306;28;20041;-73
2022/04/18 02:15:09;;;;;;;2.85;2.17;;;;;;;7.75;95.60;99494.22;5041851;28;20049;-73
2022/04/18 02:17:35;;;;;;;1.75;1.25;;;;;;;7.55;95.87;99503.25;5042048;28;20079;-73
2022/04/18 02:20:00;;;;;;;1.38;1.23;;;;;;;7.57;96.07;99502.13;5042664;28;20022;-73
2022/04/18 02:22:27;;;;;;;1.88;1.48;;;;;;;7.18;98.12;99498.03;5040816;28;20323;-73
2022/04/18 02:24:56;;;;;;;1.65;1.30;;;;;;;7.28;98.10;99497.03;5040777;28;20250;-73
2022/04/18 02:27:22;;;;;;;3.38;2.10;;;;;;;7.58;98.14;99500.31;5040041;28;20037;-73
2022/04/18 02:29:47;;;;;;;1.67;1.20;;;;;;;7.56;98.04;99497.00;5041289;28;20257;-73
2022/04/18 02:34:56;;;;;;;1.45;1.08;;;;;;;7.24;98.52;99494.81;5042387;28;20067;-73
2022/04/18 02:37:22;;;;;;;1.95;1.10;;;;;;;7.56;97.62;99505.72;5040754;28;20029;-73
2022/04/18 02:39:47;;;;;;;1.55;1.17;;;;;;;7.54;96.91;99504.22;5041161;28;20084;-73
2022/04/18 02:42:13;;;;;;;3.35;1.77;;;;;;;7.49;97.74;99504.66;5040431;28;20450;-72
2022/04/18 02:44:38;;;;;;;4.70;1.40;;;;;;;7.63;98.17;99509.44;5041817;28;20037;-73
2022/04/18 02:47:04;;;;;;;2.90;1.58;;;;;;;7.21;98.24;99506.47;5041022;28;20045;-73
2022/04/18 02:49:31;;;;;;;2.85;1.25;;;;;;;7.33;99.36;99507.13;5041493;28;20379;-73
2022/04/18 02:51:56;;;;;;;1.85;1.30;;;;;;;7.19;99.10;99503.13;5040916;28;20029;-73
2022/04/18 02:54:22;;;;;;;2.53;1.75;;;;;;;7.29;99.11;99498.69;5039594;28;20013;-73
2022/04/18 02:56:47;;;;;;;3.55;2.00;;;;;;;7.15;99.50;99496.50;5040348;28;20331;-73
2022/04/18 02:59:13;;;;;;;6.50;2.80;;;;;;;7.20;98.94;99485.53;5041161;28;20092;-73
2022/04/18 03:01:38;;;;;;;4.72;3.45;;;;;;;7.11;100.00;99500.41;5041475;28;20048;-73
2022/04/18 03:04:04;;;;;;;5.50;3.80;;;;;;;7.26;99.89;99501.56;5039939;28;20219;-73
2022/04/18 03:06:29;;;;;;;2.90;1.60;;;;;;;7.18;100.00;99500.66;5038701;28;20087;-73
2022/04/18 03:08:55;;;;;;;2.45;1.30;;;;;;;7.08;99.36;99494.59;5039720;28;20113;-73
2022/04/18 03:11:20;;;;;;;1.73;1.27;;;;;;;6.96;100.00;99502.69;5040449;28;20104;-73
2022/04/18 03:13:46;;;;;;;2.22;1.25;;;;;;;7.26;98.68;99503.38;5041034;28;20047;-73
2022/04/18 03:16:13;;;;;;;6.28;2.47;;;;;;;7.05;98.37;99462.34;5040193;28;20033;-73
2022/04/18 03:18:39;;;;;;;2.85;1.65;;;;;;;7.36;97.57;99494.47;5042039;28;20087;-73
2022/04/18 03:21:05;;;;;;;2.33;1.42;;;;;;;7.23;98.46;99503.69;5041387;28;20051;-73
2022/04/18 03:23:32;;;;;;;4.32;3.50;;;;;;;7.16;99.83;99507.88;5041882;28;20037;-73
2022/04/18 03:25:58;;;;;;;3.85;2.15;;;;;;;7.10;100.00;99498.75;5041241;28;20410;-73
2022/04/18 03:28:25;;;;;;;5.03;2.97;;;;;;;7.43;100.00;99504.44;5041094;28;20112;-73
2022/04/18 03:30:51;;;;;;;6.90;3.30;;;;;;;7.49;98.91;99502.03;5041206;28;20152;-73
2022/04/18 03:33:16;;;;;;;2.47;1.67;;;;;;;7.38;97.50;99498.78;5041287;28;20314;-73
2022/04/18 03:39:50;;;;;;;2.97;2.40;;;;;;;7.30;98.17;99497.72;5039331;28;20029;-73
2022/04/18 03:41:28;;;;;;;14.20;9.32;;;;;;;7.43;98.86;99488.63;4999593;28;20062;-73
2022/04/18 03:43:53;;;;;;;14.52;9.07;;;;;;;7.63;97.57;99490.16;5031251;28;20049;-73
2022/04/18 03:46:19;;;;;;;4.57;2.38;;;;;;;7.68;96.93;99475.56;5040001;28;20037;-73
2022/04/18 03:48:44;;;;;;;17.75;4.97;;;;;;;7.62;97.68;99489.31;5040136;28;20311;-73
2022/04/18 03:51:09;;;;;;;7.65;3.15;;;;;;;7.88;96.03;99491.22;5040113;28;20037;-73
2022/04/18 03:53:35;;;;;;;11.25;8.13;;;;;;;7.92;95.87;99495.22;5040212;28;21698;-73
2022/04/18 03:56:00;;;;;;;4.00;3.08;;;;;;;7.85;96.14;99487.06;5039952;28;20047;-73
2022/04/18 03:58:26;;;;;;;3.35;1.42;;;;;;;7.79;96.43;99492.13;5040137;28;20297;-73
2022/04/18 04:00:51;;;;;;;3.28;1.73;;;;;;;7.98;95.74;99478.78;5039757;28;20043;-73
2022/04/18 04:03:17;;;;;;;3.95;1.98;;;;;;;7.93;95.02;99484.50;5040262;28;20037;-73
2022/04/18 04:05:42;;;;;;;9.98;3.50;;;;;;;7.99;95.75;99488.34;5039224;28;20045;-74
2022/04/18 04:08:07;;;;;;;8.10;2.88;;;;;;;7.85;95.99;99497.63;5040091;28;20034;-73
2022/04/18 04:10:33;;;;;;;24.55;5.75;;;;;;;7.92;96.02;99495.22;5039771;28;20063;-73
2022/04/18 04:12:59;;;;;;;9.52;2.63;;;;;;;7.99;95.25;99483.91;5039631;28;20339;-73
2022/04/18 04:15:24;;;;;;;5.80;2.70;;;;;;;7.95;94.69;99492.28;5038964;28;20096;-73
2022/04/18 04:17:50;;;;;;;6.70;3.17;;;;;;;8.03;94.93;99500.25;5039621;28;20168;-73
2022/04/18 04:20:16;;;;;;;13.20;4.75;;;;;;;7.94;95.42;99485.34;5039696;28;20036;-73
2022/04/18 04:22:48;;;;;;;6.35;3.28;;;;;;;7.95;95.53;99494.91;5038566;28;20144;-74
2022/04/18 04:25:17;;;;;;;6.70;3.25;;;;;;;8.08;95.41;99497.16;5040074;28;20048;-73
2022/04/18 04:27:43;;;;;;;6.18;4.05;;;;;;;8.05;95.21;99495.66;5038506;28;20044;-73
2022/04/18 04:30:09;;;;;;;6.57;3.38;;;;;;;7.93;96.26;99488.94;5039308;28;20096;-74
2022/04/18 04:32:34;;;;;;;7.25;3.63;;;;;;;7.89;95.96;99492.88;5038824;28;20037;-73
2022/04/18 04:35:00;;;;;;;5.45;3.80;;;;;;;7.91;95.91;99493.56;5039873;28;20033;-73
2022/04/18 04:37:25;;;;;;;10.35;4.40;;;;;;;8.09;94.73;99491.72;5039362;28;20025;-73
2022/04/18 04:39:51;;;;;;;5.55;3.53;;;;;;;8.09;95.90;99493.53;5037046;28;20215;-73
2022/04/18 04:42:17;;;;;;;7.85;3.78;;;;;;;8.22;95.88;99494.81;5039450;28;20029;-73
2022/04/18 04:44:43;;;;;;;6.35;3.88;;;;;;;8.14;96.31;99486.00;5036712;28;20025;-73
2022/04/18 04:47:09;;;;;;;7.05;3.13;;;;;;;8.12;96.69;99499.34;5037168;28;20039;-73
2022/04/18 04:49:34;;;;;;;7.20;3.60;;;;;;;8.05;96.30;99492.19;5038254;28;20204;-73
2022/04/18 04:52:00;;;;;;;6.57;3.63;;;;;;;7.93;96.85;99492.41;5036790;28;20327;-73
2022/04/18 04:54:25;;;;;;;9.48;3.63;;;;;;;7.83;97.22;99489.03;5038138;28;20105;-73
2022/04/18 04:56:50;;;;;;;10.02;4.00;;;;;;;7.93;96.79;99504.78;5039171;28;20045;-73
2022/04/18 04:59:16;;;;;;;5.60;3.50;;;;;;;7.74;98.20;99503.13;5037924;28;20049;-73
2022/04/18 05:01:41;;;;;;;9.55;3.78;;;;;;;8.10;97.13;99509.22;5038849;28;20066;-73
2022/04/18 05:04:07;;;;;;;9.82;3.85;;;;;;;8.14;96.23;99507.09;5041708;28;20030;-73
2022/04/18 05:06:32;;;;;;;5.75;3.47;;;;;;;8.12;96.08;99514.34;5038418;28;20053;-73
2022/04/18 05:08:57;;;;;;;6.38;2.88;;;;;;;8.16;97.25;99511.25;5039000;28;20042;-73
2022/04/18 05:11:23;;;;;;;7.72;3.15;;;;;;;8.21;96.08;99511.59;5035918;28;20030;-73
2022/04/18 05:13:48;;;;;;;7.07;3.25;;;;;;;7.68;97.01;99507.16;5038901;28;20053;-73
2022/04/18 05:16:14;;;;;;;5.40;3.30;;;;;;;7.78;97.90;99507.09;5039273;28;20025;-73
2022/04/18 05:18:39;;;;;;;8.23;2.95;;;;;;;7.83;98.19;99506.66;5034999;28;20083;-73
2022/04/18 05:21:05;;;;;;;7.10;3.17;;;;;;;7.96;97.79;99512.38;5037057;28;20040;-73
2022/04/18 05:23:31;;;;;;;5.38;2.67;;;;;;;8.05;98.25;99503.56;5038624;28;20044;-74
2022/04/18 05:25:56;;;;;;;3.53;2.47;;;;;;;8.01;96.49;99496.94;5038746;28;20030;-73
2022/04/18 05:28:22;;;;;;;7.45;3.28;;;;;;;7.97;97.03;99501.69;5036007;28;20029;-73
2022/04/18 05:30:47;;;;;;;6.88;3.10;;;;;;;8.22;96.58;99512.44;5039823;28;20113;-73
2022/04/18 05:33:13;;;;;;;8.77;3.67;;;;;;;8.26;95.11;99500.59;5036126;28;20388;-73
2022/04/18 05:35:38;;;;;;;4.35;2.90;;;;;;;8.41;95.10;99512.31;5038601;28;20128;-73
2022/04/18 05:38:04;;;;;;;5.35;3.42;;;;;;;8.55;94.82;99511.75;5037823;28;20330;-73
2022/04/18 05:40:29;;;;;;;5.82;4.07;;;;;;;8.50;93.67;99513.19;5038643;28;20469;-73
2022/04/18 05:42:55;;;;;;;11.88;5.60;;;;;;;8.48;93.71;99517.81;5039010;28;20060;-73
2022/04/18 05:45:20;;;;;;;10.27;5.00;;;;;;;8.42;92.22;99510.50;5038790;28;20088;-73
2022/04/18 05:47:46;;;;;;;10.13;5.57;;;;;;;8.37;94.04;99526.81;5037299;28;20097;-73
2022/04/18 05:50:12;;;;;;;10.02;6.68;;;;;;;8.36;95.65;99521.69;5037847;28;20025;-73
2022/04/18 05:52:38;;;;;;;16.83;7.55;;;;;;;8.49;95.83;99522.94;5037278;28;20036;-73
2022/04/18 05:55:04;;;;;;;9.60;5.70;;;;;;;8.48;95.19;99525.72;5036457;28;20025;-73
2022/04/18 05:57:29;;;;;;;10.85;5.60;;;;;;;8.60;94.47;99527.97;5037754;28;20061;-74
2022/04/18 05:59:55;;;;;;;10.10;4.75;;;;;;;8.58;95.20;99515.91;5036751;28;20025;-73
2022/04/18 06:02:20;;;;;;;6.82;4.55;;;;;;;8.72;94.16;99522.41;5037537;28;20200;-73
2022/04/18 06:04:46;;;;;;;7.78;3.88;;;;;;;8.63;94.89;99530.28;5034786;28;20034;-73
2022/04/18 06:07:11;;;;;;;6.78;4.28;;;;;;;8.75;94.80;99525.56;5037382;28;20037;-73
2022/04/18 06:09:37;;;;;;;6.75;3.70;;;;;;;8.65;93.54;99524.84;5036614;28;20044;-73
2022/04/18 06:12:03;;;;;;;12.85;4.38;;;;;;;8.70;94.96;99525.22;5037837;28;20222;-73
2022/04/18 06:14:28;;;;;;;10.35;3.97;;;;;;;8.53;94.48;99516.38;5036939;28;20041;-73
2022/04/18 06:16:53;;;;;;;13.35;4.05;;;;;;;8.61;95.52;99534.91;5037678;28;20044;-73
2022/04/18 06:19:19;;;;;;;8.30;3.78;;;;;;;8.62;95.25;99528.63;5036240;28;20042;-73
2022/04/18 06:21:46;;;;;;;10.77;4.13;;;;;;;8.79;94.29;99536.66;5036417;28;20041;-73
2022/04/18 06:24:11;;;;;;;6.95;3.42;;;;;;;8.64;94.53;99536.41;5036603;28;20036;-73
2022/04/18 06:26:37;;;;;;;6.22;3.40;;;;;;;8.58;93.98;99534.38;5036472;28;20096;-73
2022/04/18 06:29:02;;;;;;;11.98;5.25;;;;;;;8.72;93.13;99540.91;5037270;28;20041;-73
2022/04/18 06:31:28;;;;;;;10.55;4.35;;;;;;;8.62;94.23;99541.81;5036725;28;20261;-73
2022/04/18 06:33:54;;;;;;;9.45;4.20;;;;;;;8.97;94.03;99537.41;5040696;28;20703;-73
2022/04/18 06:36:19;;;;;;;9.15;4.75;;;;;;;9.08;92.14;99541.59;5039806;28;20045;-73
2022/04/18 06:38:44;;;;;;;7.88;4.55;;;;;;;9.05;90.78;99548.03;5040777;28;20041;-73
2022/04/18 06:41:10;;;;;;;5.55;3.80;;;;;;;9.01;91.31;99543.22;5039705;28;20044;-73
2022/04/18 06:43:36;;;;;;;6.95;3.58;;;;;;;8.91;92.48;99541.50;5040858;28;20227;-73
2022/04/18 06:46:01;;;;;;;2.95;1.90;;;;;;;8.80;89.20;99557.63;5039207;28;20040;-73
2022/04/18 06:48:27;;;;;;;29.98;15.07;;;;;;;8.59;90.70;99550.06;5039039;28;20028;-73
2022/04/18 06:50:52;;;;;;;19.55;10.57;;;;;;;8.80;91.56;99554.16;5039102;28;20378;-73
2022/04/18 06:53:17;;;;;;;27.65;16.00;;;;;;;9.05;91.03;99553.31;5039560;28;20103;-73
2022/04/18 06:58:27;;;;;;;28.02;16.63;;;;;;;9.12;87.68;99549.06;5040320;28;20781;-73
2022/04/18 07:00:53;;;;;;;32.38;22.23;;;;;;;9.01;86.01;99556.41;5039227;28;20029;-73
2022/04/18 07:03:18;;;;;;;20.73;14.88;;;;;;;9.25;84.10;99561.84;5040353;28;20208;-73
2022/04/18 07:05:44;;;;;;;7.75;5.50;;;;;;;9.17;82.25;99553.88;5038983;28;20100;-73
2022/04/18 07:08:09;;;;;;;10.05;5.47;;;;;;;9.34;80.45;99555.59;5039490;28;20330;-73
2022/04/18 07:10:35;;;;;;;12.25;8.88;;;;;;;9.28;80.70;99551.78;5037440;28;20032;-74
2022/04/18 07:13:00;;;;;;;17.58;10.85;;;;;;;9.36;81.79;99561.56;5038405;28;20088;-73
2022/04/18 07:15:25;;;;;;;16.60;9.05;;;;;;;9.30;82.39;99567.47;5039167;28;20094;-73
2022/04/18 07:17:51;;;;;;;7.15;4.05;;;;;;;9.39;83.52;99566.56;5040072;28;20372;-73
2022/04/18 07:20:17;;;;;;;5.38;3.08;;;;;;;8.93;85.66;99538.72;5038820;28;20040;-73
2022/04/18 07:22:43;;;;;;;5.88;2.50;;;;;;;9.10;88.02;99577.44;5038780;28;20096;-73
2022/04/18 07:25:09;;;;;;;3.47;2.20;;;;;;;9.32;85.82;99570.78;5039610;28;20048;-73
2022/04/18 07:27:34;;;;;;;7.15;3.22;;;;;;;9.37;86.69;99572.97;5038906;28;20057;-73
2022/04/18 07:30:00;;;;;;;6.93;5.68;;;;;;;9.14;87.44;99562.94;5040246;28;20034;-73
2022/04/18 07:32:26;;;;;;;6.25;4.00;;;;;;;9.20;87.10;99580.78;5039368;28;20029;-73
2022/04/18 07:34:53;;;;;;;6.22;3.88;;;;;;;9.20;86.56;99567.59;5040196;28;20345;-73
2022/04/18 07:37:18;;;;;;;5.43;3.83;;;;;;;9.46;85.74;99578.13;5039298;28;20045;-73
2022/04/18 07:39:44;;;;;;;3.60;2.50;;;;;;;9.36;86.72;99571.28;5039809;28;20037;-73
2022/04/18 07:42:09;;;;;;;6.05;3.30;;;;;;;9.51;86.84;99577.66;5037354;28;20386;-73
2022/04/18 07:44:35;;;;;;;6.35;3.88;;;;;;;9.35;85.73;99573.09;5039794;28;20081;-73
2022/04/18 07:47:00;;;;;;;8.60;2.88;;;;;;;9.34;84.54;99583.84;5038243;28;20074;-73
2022/04/18 07:49:25;;;;;;;3.38;2.08;;;;;;;9.46;84.42;99586.06;5039204;28;20135;-73
2022/04/18 07:51:52;;;;;;;3.33;2.15;;;;;;;9.38;84.77;99588.69;5038933;28;20362;-73
2022/04/18 07:54:20;;;;;;;6.93;3.40;;;;;;;9.30;85.10;99585.97;5038507;28;20029;-73
2022/04/18 07:56:46;;;;;;;4.43;2.90;;;;;;;9.35;86.16;99598.69;5039145;28;20044;-73
2022/04/18 07:59:12;;;;;;;1.73;1.52;;;;;;;9.29;86.83;99601.00;5038183;28;20033;-73
2022/04/18 08:01:37;;;;;;;3.10;2.10;;;;;;;9.04;88.09;99601.00;5039310;28;20033;-73
2022/04/18 08:04:04;;;;;;;2.58;1.58;;;;;;;9.27;85.92;99604.78;5038234;28;20036;-73
2022/04/18 08:06:31;;;;;;;1.98;1.33;;;;;;;9.18;85.25;99613.63;5038491;28;20114;-73
2022/04/18 08:08:57;;;;;;;2.78;1.48;;;;;;;9.21;84.29;99614.16;5036675;28;20509;-73
2022/04/18 08:11:23;;;;;;;2.53;1.30;;;;;;;9.37;83.40;99607.34;5033416;28;20087;-73
2022/04/18 08:13:49;;;;;;;2.03;1.23;;;;;;;9.57;82.62;99606.09;5037890;28;20096;-73
2022/04/18 08:16:15;;;;;;;2.80;1.45;;;;;;;9.51;82.03;99609.38;5037074;28;20271;-73
2022/04/18 08:18:44;;;;;;;2.38;1.35;;;;;;;9.49;81.95;99612.19;5036960;28;20060;-73
2022/04/18 08:21:11;;;;;;;2.65;1.40;;;;;;;9.63;82.20;99612.56;5037643;28;20037;-73
2022/04/18 08:23:36;;;;;;;3.72;2.03;;;;;;;9.73;79.65;99624.69;5038996;28;20037;-73
2022/04/18 08:26:03;;;;;;;0.95;0.80;;;;;;;9.51;80.76;99619.97;5037624;28;20082;-73
2022/04/18 08:28:29;;;;;;;1.50;0.90;;;;;;;9.38;81.74;99623.03;5038117;28;20315;-73
2022/04/18 08:30:55;;;;;;;1.15;1.05;;;;;;;9.34;81.85;99626.13;5037044;28;20257;-73
2022/04/18 08:33:21;;;;;;;1.10;1.00;;;;;;;9.28;80.53;99620.47;5036519;28;20033;-73
2022/04/18 08:35:47;;;;;;;2.20;1.88;;;;;;;9.07;82.13;99627.09;5038174;28;20045;-73
2022/04/18 08:38:12;;;;;;;2.72;1.60;;;;;;;8.60;83.46;99635.34;5037450;28;20032;-73
2022/04/18 08:40:42;;;;;;;3.50;2.67;;;;;;;8.64;84.74;99639.34;5038571;28;20056;-73
2022/04/18 08:43:08;;;;;;;1.83;1.60;;;;;;;8.67;83.37;99627.63;5037567;28;20033;-73
2022/04/18 08:45:35;;;;;;;3.67;1.48;;;;;;;8.58;85.01;99642.59;5037882;28;20037;-73
2022/04/18 08:53:30;;;;;;;3.80;2.28;;;;;;;9.04;87.06;99630.88;5037465;28;21046;-73
2022/04/18 08:55:58;;;;;;;2.97;2.50;;;;;;;9.37;87.63;99642.50;5035787;28;20053;-74
2022/04/18 08:58:26;;;;;;;3.35;2.22;;;;;;;9.41;88.12;99640.38;5037075;28;20048;-73
2022/04/18 09:00:53;;;;;;;2.58;2.20;;;;;;;9.46;89.17;99631.00;5037263;28;20116;-73
2022/04/18 09:03:18;;;;;;;3.00;2.30;;;;;;;9.54;89.10;99625.75;5037992;28;20292;-73
2022/04/18 09:05:44;;;;;;;4.43;3.22;;;;;;;9.57;87.52;99616.69;5036453;28;20038;-73
2022/04/18 09:08:10;;;;;;;2.40;2.08;;;;;;;9.81;85.07;99629.16;5038219;28;20032;-73
2022/04/18 09:10:37;;;;;;;3.63;2.20;;;;;;;9.74;85.65;99631.63;5035753;28;20234;-73
2022/04/18 09:13:13;;;;;;;4.43;2.53;;;;;;;9.69;85.09;99602.19;5035694;28;20034;-73
2022/04/18 09:15:46;;;;;;;2.53;1.70;;;;;;;9.97;84.32;99629.22;5035978;28;20295;-73
2022/04/18 09:18:17;;;;;;;2.22;1.50;;;;;;;10.01;81.90;99632.38;5037353;28;20052;-73
2022/04/18 09:20:52;;;;;;;1.77;1.40;;;;;;;10.08;82.75;99633.38;5035267;28;20053;-73
2022/04/18 09:23:20;;;;;;;2.65;1.83;;;;;;;10.01;81.88;99641.13;5036791;28;20033;-73
2022/04/18 09:25:46;;;;;;;1.92;1.45;;;;;;;9.93;82.45;99633.16;5036026;28;20223;-73
2022/04/18 09:28:12;;;;;;;2.22;1.60;;;;;;;9.96;81.92;99640.78;5037013;28;20017;-73
2022/04/18 09:30:37;;;;;;;2.08;1.35;;;;;;;9.80;81.80;99633.63;5037680;28;20026;-73
2022/04/18 09:33:07;;;;;;;3.05;1.20;;;;;;;9.62;83.67;99642.63;5038269;28;20235;-74
2022/04/18 09:35:34;;;;;;;1.50;1.10;;;;;;;9.50;82.63;99626.22;5037817;28;20234;-73
2022/04/18 09:38:02;;;;;;;1.73;1.60;;;;;;;9.79;84.52;99639.06;5036796;28;20196;-73
2022/04/18 09:40:27;;;;;;;1.80;1.38;;;;;;;9.86;84.50;99642.72;5052597;28;20017;-73
2022/04/18 09:42:56;;;;;;;2.55;1.83;;;;;;;10.00;84.42;99644.75;5037017;28;20076;-73
2022/04/18 09:45:23;;;;;;;2.75;1.40;;;;;;;10.07;81.82;99648.44;5037708;28;20144;-73
2022/04/18 09:47:56;;;;;;;2.60;1.52;;;;;;;10.09;81.82;99629.75;5038009;28;20353;-73
2022/04/18 09:53:27;;;;;;;3.13;1.67;;;;;;;10.01;84.50;99643.78;5035813;28;20040;-74
2022/04/18 09:55:53;;;;;;;;;;;;;;;10.35;84.08;99656.13;5037106;28;20033;-73
2022/04/18 09:58:19;;;;;;;3.40;2.05;;;;;;;10.25;82.57;99637.75;5037656;28;19913;-73
2022/04/18 10:00:45;;;;;;;4.35;2.75;;;;;;;10.29;81.95;99647.03;5037481;28;20038;-73
2022/04/18 10:03:11;;;;;;;2.85;1.90;;;;;;;10.01;85.19;99608.56;5037251;28;20385;-74
2022/04/18 10:05:39;;;;;;;3.53;1.95;;;;;;;10.04;85.32;99646.09;5037304;28;20041;-74
2022/04/18 10:08:05;;;;;;;2.95;1.95;;;;;;;10.21;85.29;99644.34;5040821;28;20033;-73
2022/04/18 10:10:35;;;;;;;3.15;2.10;;;;;;;10.19;84.67;99647.13;5041319;28;20033;-73
2022/04/18 10:13:02;;;;;;;4.55;2.85;;;;;;;10.24;85.15;99650.16;5040435;28;20260;-73
2022/04/18 10:15:29;;;;;;;1.92;1.75;;;;;;;10.15;84.24;99647.63;5041266;28;20025;-73
2022/04/18 10:17:56;;;;;;;4.70;3.28;;;;;;;10.08;85.36;99628.09;5040191;28;20052;-73
2022/04/18 10:20:40;;;;;;;2.47;1.63;;;;;;;10.20;85.64;99646.16;5039884;28;20025;-74
2022/04/18 10:23:39;;;;;;;2.30;1.55;;;;;;;10.01;84.16;99651.72;5040161;28;20385;-73
2022/04/18 10:26:10;;;;;;;1.42;1.33;;;;;;;9.75;84.66;99645.66;5039467;28;20314;-73
2022/04/18 10:28:41;;;;;;;2.05;1.65;;;;;;;9.67;84.37;99621.84;5040785;28;20076;-73
2022/04/18 10:31:15;;;;;;;2.08;1.52;;;;;;;10.00;83.17;99651.88;5041458;28;20111;-73
2022/04/18 10:33:42;;;;;;;1.90;1.50;;;;;;;9.66;82.46;99633.41;5039840;28;20318;-73
2022/04/18 10:36:09;;;;;;;1.92;1.48;;;;;;;9.80;81.44;99646.84;5039917;28;20022;-73
2022/04/18 10:38:36;;;;;;;1.70;1.52;;;;;;;10.01;83.27;99645.59;5040613;28;20049;-73
2022/04/18 10:41:15;;;;;;;1.50;1.40;;;;;;;10.17;82.88;99649.13;5038649;28;20032;-73
2022/04/18 10:44:01;;;;;;;2.25;1.85;;;;;;;10.10;85.22;99642.81;5038850;28;20025;-73
2022/04/18 10:46:26;;;;;;;1.75;1.45;;;;;;;10.04;85.84;99640.81;5038415;28;20319;-73
2022/04/18 10:49:00;;;;;;;2.00;1.65;;;;;;;10.27;84.91;99627.84;5039696;28;20029;-73
2022/04/18 10:51:37;;;;;;;3.85;2.30;;;;;;;10.61;81.65;99629.56;5039225;28;20143;-73
2022/04/18 10:54:06;;;;;;;2.15;1.90;;;;;;;10.65;82.31;99623.75;5038569;28;20041;-73
2022/04/18 10:57:10;;;;;;;1.20;1.10;;;;;;;10.12;75.91;99635.53;5040663;28;20030;-74
2022/04/18 10:59:38;;;;;;;1.30;1.20;;;;;;;9.66;79.70;99625.47;5038132;28;20044;-73
2022/04/18 11:02:05;;;;;;;2.05;1.42;;;;;;;8.94;82.21;99609.88;5040501;28;20037;-73
2022/04/18 11:04:53;;;;;;;2.40;1.40;;;;;;;8.90;83.33;99642.84;5039206;28;21327;-73
2022/04/18 11:07:19;;;;;;;1.10;1.00;;;;;;;9.12;79.54;99632.75;5040002;28;20056;-73
2022/04/18 11:09:51;;;;;;;10.80;4.80;;;;;;;9.32;82.49;99636.84;5039296;28;20029;-73
2022/04/18 11:12:18;;;;;;;4.38;1.92;;;;;;;9.20;81.82;99635.44;5038963;28;20327;-73
2022/04/18 11:14:52;;;;;;;2.17;1.60;;;;;;;9.07;82.14;99641.16;5039267;28;20037;-73
2022/04/18 11:17:25;;;;;;;;;;;;;;;8.77;82.16;99644.22;5038892;28;20255;-73
2022/04/18 11:19:50;;;;;;;1.80;1.10;;;;;;;8.41;85.35;99644.25;5037504;28;19959;-73
2022/04/18 11:22:24;;;;;;;0.85;0.85;;;;;;;8.03;83.39;99634.72;5038296;28;20021;-73
2022/04/18 11:24:49;;;;;;;2.03;0.80;;;;;;;8.02;85.42;99648.88;5038816;28;20026;-73
2022/04/18 11:27:26;;;;;;;0.82;0.82;;;;;;;8.12;83.18;99639.09;5039910;28;20033;-73
2022/04/18 11:29:54;;;;;;;1.13;0.93;;;;;;;8.18;85.66;99645.59;5039545;28;20094;-73
2022/04/18 11:32:22;;;;;;;1.13;1.02;;;;;;;7.92;86.51;99637.56;5037070;28;20017;-73
2022/04/18 11:34:50;;;;;;;0.90;0.90;;;;;;;7.99;86.07;99631.56;5039111;28;20032;-73
2022/04/18 11:37:28;;;;;;;1.10;0.98;;;;;;;8.00;85.85;99638.50;5039401;28;20037;-73
2022/04/18 11:39:56;;;;;;;1.10;1.00;;;;;;;8.02;86.02;99617.25;5039062;28;20198;-73
2022/04/18 11:42:23;;;;;;;3.85;0.98;;;;;;;8.40;84.88;99631.19;5039772;28;20311;-73
2022/04/18 11:44:51;;;;;;;1.27;1.10;;;;;;;8.06;84.83;99615.16;5038718;28;20033;-73
2022/04/18 11:47:24;;;;;;;1.83;1.15;;;;;;;7.96;85.48;99616.03;5038652;28;20040;-73
2022/04/18 11:50:01;;;;;;;0.80;0.80;;;;;;;7.68;83.75;99622.31;5038542;28;20022;-73
2022/04/18 11:52:38;;;;;;;1.20;1.10;;;;;;;7.82;88.93;99621.81;5039056;28;20037;-73
2022/04/18 11:55:03;;;;;;;1.10;1.00;;;;;;;7.93;83.51;99615.50;5038431;28;20021;-73
2022/04/18 11:57:32;;;;;;;2.08;1.02;;;;;;;7.99;82.91;99615.75;5037280;28;20036;-73